sensor_id;sensor_type;location;lat;lon;timestamp;pressure;altitude;pressure_sealevel;temperature;humidity
46291;BME280;32023;44.444;26.006;2023-01-29T00:01:58;100741.53;;;1.22;nan
46291;BME280;32023;44.444;26.006;2023-01-29T00:04:24;100745.09;;;1.22;nan
46291;BME280;32023;44.444;26.006;2023-01-29T00:06:50;100740.34;;;1.24;nan
46291;BME280;32023;44.444;26.006;2023-01-29T00:09:17;100718.78;;;1.02;nan
46291;BME280;32023;44.444;26.006;2023-01-29T00:11:43;100755.38;;;1.27;nan
46291;BME280;32023;44.444;26.006;2023-01-29T00:14:10;100757.06;;;1.28;nan
46291;BME280;32023;44.444;26.006;2023-01-29T00:16:36;100751.66;;;1.28;nan
46291;BME280;32023;44.444;26.006;2023-01-29T00:19:03;100755.44;;;1.33;nan
46291;BME280;32023;44.444;26.006;2023-01-29T00:21:30;100751.91;;;1.33;nan
46291;BME280;32023;44.444;26.006;2023-01-29T00:23:57;100754.81;;;1.31;nan
46291;BME280;32023;44.444;26.006;2023-01-29T00:26:23;100754.59;;;1.33;nan
46291;BME280;32023;44.444;26.006;2023-01-29T00:28:49;100752.81;;;1.40;nan
46291;BME280;32023;44.444;26.006;2023-01-29T00:31:21;100767.97;;;1.49;nan
46291;BME280;32023;44.444;26.006;2023-01-29T00:33:48;100768.88;;;1.56;nan
46291;BME280;32023;44.444;26.006;2023-01-29T00:36:16;100780.47;;;1.65;nan
46291;BME280;32023;44.444;26.006;2023-01-29T00:38:43;100768.31;;;1.61;nan
46291;BME280;32023;44.444;26.006;2023-01-29T00:41:12;100788.31;;;1.60;nan
46291;BME280;32023;44.444;26.006;2023-01-29T00:43:58;100763.56;;;1.48;nan
46291;BME280;32023;44.444;26.006;2023-01-29T00:46:44;100775.00;;;1.43;nan
46291;BME280;32023;44.444;26.006;2023-01-29T00:49:10;100766.03;;;1.43;nan
46291;BME280;32023;44.444;26.006;2023-01-29T00:51:38;100767.31;;;1.47;nan
46291;BME280;32023;44.444;26.006;2023-01-29T00:54:05;100775.63;;;1.45;nan
46291;BME280;32023;44.444;26.006;2023-01-29T00:56:36;100766.94;;;1.50;nan
46291;BME280;32023;44.444;26.006;2023-01-29T00:59:03;100773.28;;;1.57;nan
46291;BME280;32023;44.444;26.006;2023-01-29T01:01:29;100774.97;;;1.58;nan
46291;BME280;32023;44.444;26.006;2023-01-29T01:04:14;100778.03;;;1.55;nan
46291;BME280;32023;44.444;26.006;2023-01-29T01:06:41;100781.88;;;1.61;nan
46291;BME280;32023;44.444;26.006;2023-01-29T01:09:09;100783.44;;;1.70;nan
46291;BME280;32023;44.444;26.006;2023-01-29T01:11:54;100759.44;;;1.52;nan
46291;BME280;32023;44.444;26.006;2023-01-29T01:14:21;100784.81;;;1.80;nan
46291;BME280;32023;44.444;26.006;2023-01-29T01:16:47;100796.13;;;1.84;nan
46291;BME280;32023;44.444;26.006;2023-01-29T01:19:14;100793.47;;;1.90;nan
46291;BME280;32023;44.444;26.006;2023-01-29T01:21:41;100801.22;;;1.93;nan
46291;BME280;32023;44.444;26.006;2023-01-29T01:24:13;100792.69;;;1.97;nan
46291;BME280;32023;44.444;26.006;2023-01-29T01:26:40;100799.81;;;1.98;nan
46291;BME280;32023;44.444;26.006;2023-01-29T01:29:06;100800.47;;;2.00;nan
46291;BME280;32023;44.444;26.006;2023-01-29T01:31:32;100795.50;;;2.03;nan
46291;BME280;32023;44.444;26.006;2023-01-29T01:34:01;100796.97;;;2.06;nan
46291;BME280;32023;44.444;26.006;2023-01-29T01:36:27;100796.78;;;2.07;nan
46291;BME280;32023;44.444;26.006;2023-01-29T01:38:54;100794.53;;;2.11;nan
46291;BME280;32023;44.444;26.006;2023-01-29T01:41:21;100801.44;;;2.13;nan
46291;BME280;32023;44.444;26.006;2023-01-29T01:43:56;100800.19;;;2.16;nan
46291;BME280;32023;44.444;26.006;2023-01-29T01:46:25;100806.47;;;2.16;nan
46291;BME280;32023;44.444;26.006;2023-01-29T01:49:00;100801.88;;;2.17;nan
46291;BME280;32023;44.444;26.006;2023-01-29T01:51:30;100805.25;;;2.19;nan
46291;BME280;32023;44.444;26.006;2023-01-29T01:54:11;100807.31;;;2.17;nan
46291;BME280;32023;44.444;26.006;2023-01-29T01:56:42;100804.41;;;2.18;nan
46291;BME280;32023;44.444;26.006;2023-01-29T01:59:13;100807.31;;;2.17;nan
46291;BME280;32023;44.444;26.006;2023-01-29T02:01:43;100802.91;;;2.16;nan
46291;BME280;32023;44.444;26.006;2023-01-29T02:04:21;100799.16;;;2.17;nan
46291;BME280;32023;44.444;26.006;2023-01-29T02:07:09;100798.53;;;2.15;nan
46291;BME280;32023;44.444;26.006;2023-01-29T02:10:09;100797.88;;;2.13;nan
46291;BME280;32023;44.444;26.006;2023-01-29T02:12:38;100799.56;;;2.14;nan
46291;BME280;32023;44.444;26.006;2023-01-29T02:15:04;100795.16;;;2.13;nan
46291;BME280;32023;44.444;26.006;2023-01-29T02:17:31;100796.19;;;2.12;nan
46291;BME280;32023;44.444;26.006;2023-01-29T02:26:28;100800.19;;;1.94;nan
46291;BME280;32023;44.444;26.006;2023-01-29T02:37:24;100800.38;;;1.93;nan
46291;BME280;32023;44.444;26.006;2023-01-29T02:40:04;100803.09;;;1.93;nan
46291;BME280;32023;44.444;26.006;2023-01-29T02:43:06;100800.72;;;1.83;nan
46291;BME280;32023;44.444;26.006;2023-01-29T02:45:49;100795.66;;;1.80;nan
46291;BME280;32023;44.444;26.006;2023-01-29T02:48:21;100794.81;;;1.80;nan
46291;BME280;32023;44.444;26.006;2023-01-29T02:51:00;100797.47;;;1.73;nan
46291;BME280;32023;44.444;26.006;2023-01-29T02:56:16;100800.81;;;1.54;nan
46291;BME280;32023;44.444;26.006;2023-01-29T02:58:58;100798.81;;;1.48;nan
46291;BME280;32023;44.444;26.006;2023-01-29T03:01:34;100797.06;;;1.40;nan
46291;BME280;32023;44.444;26.006;2023-01-29T03:04:07;100801.66;;;1.40;nan
46291;BME280;32023;44.444;26.006;2023-01-29T03:06:42;100795.03;;;1.42;nan
46291;BME280;32023;44.444;26.006;2023-01-29T03:09:46;100809.78;;;1.40;nan
46291;BME280;32023;44.444;26.006;2023-01-29T03:12:16;100805.59;;;1.37;nan
46291;BME280;32023;44.444;26.006;2023-01-29T03:14:55;100802.03;;;1.37;nan
46291;BME280;32023;44.444;26.006;2023-01-29T03:18:02;100797.91;;;1.41;nan
46291;BME280;32023;44.444;26.006;2023-01-29T03:20:50;100801.66;;;1.40;nan
46291;BME280;32023;44.444;26.006;2023-01-29T03:23:27;100812.16;;;1.43;nan
46291;BME280;32023;44.444;26.006;2023-01-29T03:26:16;100810.63;;;1.40;nan
46291;BME280;32023;44.444;26.006;2023-01-29T03:29:04;100809.78;;;1.40;nan
46291;BME280;32023;44.444;26.006;2023-01-29T03:31:50;100812.31;;;1.41;nan
46291;BME280;32023;44.444;26.006;2023-01-29T03:34:47;100808.50;;;1.36;nan
46291;BME280;32023;44.444;26.006;2023-01-29T03:37:36;100823.38;;;1.25;nan
46291;BME280;32023;44.444;26.006;2023-01-29T03:40:06;100820.88;;;1.24;nan
46291;BME280;32023;44.444;26.006;2023-01-29T03:45:46;100825.16;;;1.04;nan
46291;BME280;32023;44.444;26.006;2023-01-29T03:54:21;100829.94;;;1.02;nan
46291;BME280;32023;44.444;26.006;2023-01-29T03:59:35;100831.69;;;0.94;nan
46291;BME280;32023;44.444;26.006;2023-01-29T04:02:20;100841.25;;;0.90;nan
46291;BME280;32023;44.444;26.006;2023-01-29T04:04:55;100841.59;;;0.87;nan
46291;BME280;32023;44.444;26.006;2023-01-29T04:07:23;100830.09;;;0.85;nan
46291;BME280;32023;44.444;26.006;2023-01-29T04:10:00;100834.97;;;0.90;nan
46291;BME280;32023;44.444;26.006;2023-01-29T04:12:37;100849.66;;;0.95;nan
46291;BME280;32023;44.444;26.006;2023-01-29T04:15:09;100847.59;;;0.98;nan
46291;BME280;32023;44.444;26.006;2023-01-29T04:17:44;100848.44;;;0.98;nan
46291;BME280;32023;44.444;26.006;2023-01-29T04:20:13;100848.16;;;0.93;nan
46291;BME280;32023;44.444;26.006;2023-01-29T04:22:45;100846.28;;;0.93;nan
46291;BME280;32023;44.444;26.006;2023-01-29T04:25:15;100855.81;;;0.89;nan
46291;BME280;32023;44.444;26.006;2023-01-29T04:28:06;100858.53;;;0.89;nan
46291;BME280;32023;44.444;26.006;2023-01-29T04:33:03;100855.59;;;0.76;nan
46291;BME280;32023;44.444;26.006;2023-01-29T04:36:05;100857.94;;;0.79;nan
46291;BME280;32023;44.444;26.006;2023-01-29T04:41:42;100862.78;;;0.69;nan
46291;BME280;32023;44.444;26.006;2023-01-29T04:49:45;100865.13;;;0.72;nan
46291;BME280;32023;44.444;26.006;2023-01-29T04:52:19;100869.16;;;0.76;nan
46291;BME280;32023;44.444;26.006;2023-01-29T05:00:43;100872.78;;;0.69;nan
46291;BME280;32023;44.444;26.006;2023-01-29T05:03:13;100873.53;;;0.63;nan
46291;BME280;32023;44.444;26.006;2023-01-29T05:05:42;100883.16;;;0.65;nan
46291;BME280;32023;44.444;26.006;2023-01-29T05:08:12;100888.28;;;0.60;nan
46291;BME280;32023;44.444;26.006;2023-01-29T05:10:39;100877.53;;;0.52;nan
46291;BME280;32023;44.444;26.006;2023-01-29T05:13:09;100880.59;;;0.49;nan
46291;BME280;32023;44.444;26.006;2023-01-29T05:15:43;100889.25;;;0.44;nan
46291;BME280;32023;44.444;26.006;2023-01-29T05:18:12;100888.03;;;0.47;nan
46291;BME280;32023;44.444;26.006;2023-01-29T05:20:41;100887.03;;;0.48;nan
46291;BME280;32023;44.444;26.006;2023-01-29T05:23:19;100893.63;;;0.45;nan
46291;BME280;32023;44.444;26.006;2023-01-29T05:25:47;100898.78;;;0.40;nan
46291;BME280;32023;44.444;26.006;2023-01-29T05:28:14;100892.03;;;0.36;nan
46291;BME280;32023;44.444;26.006;2023-01-29T05:30:50;100893.78;;;0.29;nan
46291;BME280;32023;44.444;26.006;2023-01-29T05:35:48;100896.34;;;0.23;nan
46291;BME280;32023;44.444;26.006;2023-01-29T05:38:16;100898.88;;;0.24;nan
46291;BME280;32023;44.444;26.006;2023-01-29T05:40:43;100904.66;;;0.21;nan
46291;BME280;32023;44.444;26.006;2023-01-29T05:43:18;100908.03;;;0.23;nan
46291;BME280;32023;44.444;26.006;2023-01-29T05:45:59;100907.69;;;0.26;nan
46291;BME280;32023;44.444;26.006;2023-01-29T05:48:26;100908.16;;;0.30;nan
46291;BME280;32023;44.444;26.006;2023-01-29T05:51:03;100881.19;;;0.14;nan
46291;BME280;32023;44.444;26.006;2023-01-29T05:53:30;100918.09;;;0.37;nan
46291;BME280;32023;44.444;26.006;2023-01-29T05:56:00;100920.66;;;0.31;nan
46291;BME280;32023;44.444;26.006;2023-01-29T05:58:28;100931.50;;;0.31;nan
46291;BME280;32023;44.444;26.006;2023-01-29T06:00:55;100932.13;;;0.41;nan
46291;BME280;32023;44.444;26.006;2023-01-29T06:03:21;100935.44;;;0.51;nan
46291;BME280;32023;44.444;26.006;2023-01-29T06:05:47;100931.69;;;0.52;nan
46291;BME280;32023;44.444;26.006;2023-01-29T06:08:14;100940.69;;;0.53;nan
46291;BME280;32023;44.444;26.006;2023-01-29T06:10:40;100936.22;;;0.60;nan
46291;BME280;32023;44.444;26.006;2023-01-29T06:13:06;100943.44;;;0.67;nan
46291;BME280;32023;44.444;26.006;2023-01-29T06:15:33;100950.41;;;0.62;nan
46291;BME280;32023;44.444;26.006;2023-01-29T06:17:59;100954.97;;;0.61;nan
46291;BME280;32023;44.444;26.006;2023-01-29T06:20:26;100958.06;;;0.58;nan
46291;BME280;32023;44.444;26.006;2023-01-29T06:22:52;100945.91;;;0.54;nan
46291;BME280;32023;44.444;26.006;2023-01-29T06:25:18;100951.25;;;0.62;nan
46291;BME280;32023;44.444;26.006;2023-01-29T06:27:45;100950.78;;;0.59;nan
46291;BME280;32023;44.444;26.006;2023-01-29T06:30:12;100956.03;;;0.60;nan
46291;BME280;32023;44.444;26.006;2023-01-29T06:32:38;100946.56;;;0.56;nan
46291;BME280;32023;44.444;26.006;2023-01-29T06:35:08;100958.75;;;0.60;nan
46291;BME280;32023;44.444;26.006;2023-01-29T06:37:36;100961.25;;;0.62;nan
46291;BME280;32023;44.444;26.006;2023-01-29T06:40:03;100972.94;;;0.62;nan
46291;BME280;32023;44.444;26.006;2023-01-29T06:42:34;100971.06;;;0.63;nan
46291;BME280;32023;44.444;26.006;2023-01-29T06:45:08;100982.75;;;0.63;nan
46291;BME280;32023;44.444;26.006;2023-01-29T06:47:35;100979.53;;;0.68;nan
46291;BME280;32023;44.444;26.006;2023-01-29T06:50:01;100970.91;;;0.64;nan
46291;BME280;32023;44.444;26.006;2023-01-29T06:52:28;100986.59;;;0.69;nan
46291;BME280;32023;44.444;26.006;2023-01-29T06:54:55;100979.31;;;0.69;nan
46291;BME280;32023;44.444;26.006;2023-01-29T06:57:33;100977.16;;;0.65;nan
46291;BME280;32023;44.444;26.006;2023-01-29T06:59:59;100992.97;;;0.76;nan
46291;BME280;32023;44.444;26.006;2023-01-29T07:02:26;100981.53;;;0.88;nan
46291;BME280;32023;44.444;26.006;2023-01-29T07:04:52;100992.00;;;0.91;nan
46291;BME280;32023;44.444;26.006;2023-01-29T07:07:19;100996.41;;;0.92;nan
46291;BME280;32023;44.444;26.006;2023-01-29T07:09:45;100996.91;;;0.96;nan
46291;BME280;32023;44.444;26.006;2023-01-29T07:12:29;100993.16;;;0.97;nan
46291;BME280;32023;44.444;26.006;2023-01-29T07:15:17;100998.69;;;1.04;nan
46291;BME280;32023;44.444;26.006;2023-01-29T07:18:08;101003.03;;;1.13;nan
46291;BME280;32023;44.444;26.006;2023-01-29T07:20:43;100996.50;;;1.22;nan
46291;BME280;32023;44.444;26.006;2023-01-29T07:23:12;100999.41;;;1.20;nan
46291;BME280;32023;44.444;26.006;2023-01-29T07:25:45;101008.19;;;1.22;nan
46291;BME280;32023;44.444;26.006;2023-01-29T07:28:56;100995.38;;;1.16;nan
46291;BME280;32023;44.444;26.006;2023-01-29T07:35:00;100996.94;;;1.11;nan
46291;BME280;32023;44.444;26.006;2023-01-29T07:52:28;101017.44;;;1.13;nan
46291;BME280;32023;44.444;26.006;2023-01-29T07:59:26;101024.38;;;1.16;nan
46291;BME280;32023;44.444;26.006;2023-01-29T08:05:19;101019.09;;;1.52;nan
46291;BME280;32023;44.444;26.006;2023-01-29T08:14:41;101038.00;;;1.45;nan
46291;BME280;32023;44.444;26.006;2023-01-29T08:51:40;101046.78;;;2.50;nan
46291;BME280;32023;44.444;26.006;2023-01-29T08:54:49;101034.16;;;2.42;nan
46291;BME280;32023;44.444;26.006;2023-01-29T08:58:31;101039.22;;;2.45;nan
46291;BME280;32023;44.444;26.006;2023-01-29T09:01:14;101039.19;;;2.81;nan
46291;BME280;32023;44.444;26.006;2023-01-29T09:03:41;101044.13;;;2.92;nan
46291;BME280;32023;44.444;26.006;2023-01-29T09:06:11;101047.44;;;3.09;nan
46291;BME280;32023;44.444;26.006;2023-01-29T09:08:40;101030.84;;;3.25;nan
46291;BME280;32023;44.444;26.006;2023-01-29T09:11:07;101030.63;;;3.48;nan
46291;BME280;32023;44.444;26.006;2023-01-29T09:13:35;101028.31;;;3.72;nan
46291;BME280;32023;44.444;26.006;2023-01-29T09:16:08;101000.72;;;3.54;nan
46291;BME280;32023;44.444;26.006;2023-01-29T09:19:08;101021.97;;;3.65;nan
46291;BME280;32023;44.444;26.006;2023-01-29T09:25:13;101019.28;;;3.72;nan
46291;BME280;32023;44.444;26.006;2023-01-29T09:38:06;101010.53;;;3.21;nan
46291;BME280;32023;44.444;26.006;2023-01-29T09:44:23;101013.09;;;3.29;nan
46291;BME280;32023;44.444;26.006;2023-01-29T09:46:59;101012.53;;;3.40;nan
46291;BME280;32023;44.444;26.006;2023-01-29T09:49:48;101004.78;;;3.37;nan
46291;BME280;32023;44.444;26.006;2023-01-29T09:52:29;101014.50;;;3.25;nan
46291;BME280;32023;44.444;26.006;2023-01-29T09:58:31;101015.66;;;3.09;nan
46291;BME280;32023;44.444;26.006;2023-01-29T10:01:17;101011.56;;;3.20;nan
46291;BME280;32023;44.444;26.006;2023-01-29T10:26:42;100994.69;;;3.31;nan
46291;BME280;32023;44.444;26.006;2023-01-29T10:29:23;100995.72;;;3.30;nan
46291;BME280;32023;44.444;26.006;2023-01-29T10:31:57;100994.66;;;3.24;nan
46291;BME280;32023;44.444;26.006;2023-01-29T10:34:47;100987.91;;;3.20;nan
46291;BME280;32023;44.444;26.006;2023-01-29T10:37:47;100988.38;;;3.03;nan
46291;BME280;32023;44.444;26.006;2023-01-29T10:40:22;100992.44;;;2.92;nan
46291;BME280;32023;44.444;26.006;2023-01-29T10:43:10;100988.75;;;3.00;nan
46291;BME280;32023;44.444;26.006;2023-01-29T11:02:10;100963.34;;;3.14;nan
46291;BME280;32023;44.444;26.006;2023-01-29T11:04:51;100969.31;;;3.24;nan
46291;BME280;32023;44.444;26.006;2023-01-29T11:07:34;100958.81;;;3.21;nan
46291;BME280;32023;44.444;26.006;2023-01-29T11:10:10;100954.63;;;3.25;nan
46291;BME280;32023;44.444;26.006;2023-01-29T11:12:43;100947.22;;;3.40;nan
46291;BME280;32023;44.444;26.006;2023-01-29T11:15:40;100951.88;;;3.46;nan
46291;BME280;32023;44.444;26.006;2023-01-29T11:21:16;100944.00;;;3.58;nan
46291;BME280;32023;44.444;26.006;2023-01-29T11:24:05;100949.47;;;3.64;nan
46291;BME280;32023;44.444;26.006;2023-01-29T11:26:38;100940.91;;;3.67;nan
46291;BME280;32023;44.444;26.006;2023-01-29T11:29:33;100936.41;;;3.47;nan
46291;BME280;32023;44.444;26.006;2023-01-29T11:32:24;100935.22;;;3.28;nan
46291;BME280;32023;44.444;26.006;2023-01-29T11:40:51;100932.56;;;3.41;nan
46291;BME280;32023;44.444;26.006;2023-01-29T11:43:22;100929.16;;;3.32;nan
46291;BME280;32023;44.444;26.006;2023-01-29T11:46:03;100934.97;;;3.23;nan
46291;BME280;32023;44.444;26.006;2023-01-29T11:52:21;100925.69;;;3.17;nan
46291;BME280;32023;44.444;26.006;2023-01-29T11:58:47;100931.50;;;3.35;nan
46291;BME280;32023;44.444;26.006;2023-01-29T12:19:43;100925.59;;;3.04;nan
46291;BME280;32023;44.444;26.006;2023-01-29T12:25:03;100932.44;;;3.21;nan
46291;BME280;32023;44.444;26.006;2023-01-29T12:31:02;100931.34;;;3.16;nan
46291;BME280;32023;44.444;26.006;2023-01-29T12:44:01;100915.34;;;2.78;nan
46291;BME280;32023;44.444;26.006;2023-01-29T12:50:46;100918.84;;;2.72;nan
46291;BME280;32023;44.444;26.006;2023-01-29T13:06:42;100930.47;;;2.87;nan
46291;BME280;32023;44.444;26.006;2023-01-29T13:09:20;100933.28;;;2.94;nan
46291;BME280;32023;44.444;26.006;2023-01-29T13:15:41;100926.16;;;2.93;nan
46291;BME280;32023;44.444;26.006;2023-01-29T13:25:32;100932.56;;;2.85;nan
46291;BME280;32023;44.444;26.006;2023-01-29T13:41:41;100922.91;;;2.62;nan
46291;BME280;32023;44.444;26.006;2023-01-29T13:51:11;100932.94;;;2.61;nan
46291;BME280;32023;44.444;26.006;2023-01-29T13:57:54;100938.66;;;2.66;nan
46291;BME280;32023;44.444;26.006;2023-01-29T14:07:49;100949.16;;;2.48;nan
46291;BME280;32023;44.444;26.006;2023-01-29T14:13:47;100947.38;;;2.40;nan
46291;BME280;32023;44.444;26.006;2023-01-29T14:17:17;100944.06;;;2.24;nan
46291;BME280;32023;44.444;26.006;2023-01-29T14:20:18;100949.69;;;2.22;nan
46291;BME280;32023;44.444;26.006;2023-01-29T14:26:47;100943.13;;;2.17;nan
46291;BME280;32023;44.444;26.006;2023-01-29T14:29:47;100945.22;;;2.15;nan
46291;BME280;32023;44.444;26.006;2023-01-29T14:32:29;100935.19;;;2.15;nan
46291;BME280;32023;44.444;26.006;2023-01-29T14:35:32;100945.00;;;2.16;nan
46291;BME280;32023;44.444;26.006;2023-01-29T14:38:48;100948.28;;;2.12;nan
46291;BME280;32023;44.444;26.006;2023-01-29T14:41:46;100945.88;;;2.02;nan
46291;BME280;32023;44.444;26.006;2023-01-29T14:54:50;100946.00;;;1.94;nan
46291;BME280;32023;44.444;26.006;2023-01-29T14:57:18;100938.31;;;1.98;nan
46291;BME280;32023;44.444;26.006;2023-01-29T15:00:01;100935.88;;;2.03;nan
46291;BME280;32023;44.444;26.006;2023-01-29T15:02:54;100928.38;;;2.05;nan
46291;BME280;32023;44.444;26.006;2023-01-29T15:05:53;100938.31;;;1.98;nan
46291;BME280;32023;44.444;26.006;2023-01-29T15:22:56;100946.94;;;1.86;nan
46291;BME280;32023;44.444;26.006;2023-01-29T15:29:27;100945.44;;;1.99;nan
46291;BME280;32023;44.444;26.006;2023-01-29T15:31:55;100947.13;;;2.00;nan
46291;BME280;32023;44.444;26.006;2023-01-29T15:34:22;100948.44;;;2.04;nan
46291;BME280;32023;44.444;26.006;2023-01-29T15:36:51;100947.59;;;2.03;nan
46291;BME280;32023;44.444;26.006;2023-01-29T15:39:23;100953.84;;;2.04;nan
46291;BME280;32023;44.444;26.006;2023-01-29T15:42:10;100963.22;;;2.01;nan
46291;BME280;32023;44.444;26.006;2023-01-29T15:44:44;100957.41;;;1.89;nan
46291;BME280;32023;44.444;26.006;2023-01-29T15:47:11;100963.78;;;1.82;nan
46291;BME280;32023;44.444;26.006;2023-01-29T15:49:39;100967.34;;;1.82;nan
46291;BME280;32023;44.444;26.006;2023-01-29T15:52:16;100970.44;;;1.79;nan
46291;BME280;32023;44.444;26.006;2023-01-29T15:54:46;100969.44;;;1.80;nan
46291;BME280;32023;44.444;26.006;2023-01-29T15:57:25;100975.97;;;1.71;nan
46291;BME280;32023;44.444;26.006;2023-01-29T16:00:17;100980.75;;;1.69;nan
46291;BME280;32023;44.444;26.006;2023-01-29T16:02:54;100983.00;;;1.66;nan
46291;BME280;32023;44.444;26.006;2023-01-29T16:06:05;100973.81;;;1.67;nan
46291;BME280;32023;44.444;26.006;2023-01-29T16:08:47;100977.19;;;1.69;nan
46291;BME280;32023;44.444;26.006;2023-01-29T16:11:21;100983.81;;;1.66;nan
46291;BME280;32023;44.444;26.006;2023-01-29T16:14:21;100986.53;;;1.66;nan
46291;BME280;32023;44.444;26.006;2023-01-29T16:16:52;100991.31;;;1.64;nan
46291;BME280;32023;44.444;26.006;2023-01-29T16:19:26;100991.63;;;1.69;nan
46291;BME280;32023;44.444;26.006;2023-01-29T16:22:12;100992.91;;;1.59;nan
46291;BME280;32023;44.444;26.006;2023-01-29T16:24:42;100997.13;;;1.61;nan
46291;BME280;32023;44.444;26.006;2023-01-29T16:27:25;101005.91;;;1.63;nan
46291;BME280;32023;44.444;26.006;2023-01-29T16:30:16;101003.03;;;1.65;nan
46291;BME280;32023;44.444;26.006;2023-01-29T16:33:10;101004.91;;;1.64;nan
46291;BME280;32023;44.444;26.006;2023-01-29T16:35:42;100997.75;;;1.49;nan
46291;BME280;32023;44.444;26.006;2023-01-29T16:38:49;100995.25;;;1.47;nan
46291;BME280;32023;44.444;26.006;2023-01-29T16:41:32;100991.50;;;1.48;nan
46291;BME280;32023;44.444;26.006;2023-01-29T16:44:01;100992.72;;;1.45;nan
46291;BME280;32023;44.444;26.006;2023-01-29T16:46:44;100993.94;;;1.43;nan
46291;BME280;32023;44.444;26.006;2023-01-29T17:02:51;101002.66;;;1.68;nan
46291;BME280;32023;44.444;26.006;2023-01-29T17:05:37;100996.75;;;1.64;nan
46291;BME280;32023;44.444;26.006;2023-01-29T17:08:28;100999.84;;;1.61;nan
46291;BME280;32023;44.444;26.006;2023-01-29T17:11:03;100997.13;;;1.61;nan
46291;BME280;32023;44.444;26.006;2023-01-29T17:13:39;101001.16;;;1.65;nan
46291;BME280;32023;44.444;26.006;2023-01-29T17:16:31;100995.06;;;1.63;nan
46291;BME280;32023;44.444;26.006;2023-01-29T17:18:59;100988.59;;;1.64;nan
46291;BME280;32023;44.444;26.006;2023-01-29T17:21:28;100993.00;;;1.65;nan
46291;BME280;32023;44.444;26.006;2023-01-29T17:27:40;100988.69;;;1.56;nan
46291;BME280;32023;44.444;26.006;2023-01-29T17:30:43;100993.28;;;1.56;nan
46291;BME280;32023;44.444;26.006;2023-01-29T17:33:29;100983.63;;;1.53;nan
46291;BME280;32023;44.444;26.006;2023-01-29T17:39:58;100981.94;;;1.52;nan
46291;BME280;32023;44.444;26.006;2023-01-29T17:42:27;100983.63;;;1.53;nan
46291;BME280;32023;44.444;26.006;2023-01-29T17:44:56;100985.22;;;1.48;nan
46291;BME280;32023;44.444;26.006;2023-01-29T17:47:23;100982.63;;;1.54;nan
46291;BME280;32023;44.444;26.006;2023-01-29T17:49:49;100980.25;;;1.51;nan
46291;BME280;32023;44.444;26.006;2023-01-29T17:52:18;100990.00;;;1.60;nan
46291;BME280;32023;44.444;26.006;2023-01-29T17:54:44;100987.28;;;1.60;nan
46291;BME280;32023;44.444;26.006;2023-01-29T17:57:16;100993.75;;;1.59;nan
46291;BME280;32023;44.444;26.006;2023-01-29T17:59:44;100983.81;;;1.52;nan
46291;BME280;32023;44.444;26.006;2023-01-29T18:02:13;100991.97;;;1.52;nan
46291;BME280;32023;44.444;26.006;2023-01-29T18:04:52;100986.19;;;1.55;nan
46291;BME280;32023;44.444;26.006;2023-01-29T18:07:18;100991.09;;;1.51;nan
46291;BME280;32023;44.444;26.006;2023-01-29T18:09:48;100988.50;;;1.43;nan
46291;BME280;32023;44.444;26.006;2023-01-29T18:12:20;100983.81;;;1.37;nan
46291;BME280;32023;44.444;26.006;2023-01-29T18:14:50;100985.03;;;1.34;nan
46291;BME280;32023;44.444;26.006;2023-01-29T18:17:31;100986.59;;;1.29;nan
46291;BME280;32023;44.444;26.006;2023-01-29T18:20:01;100990.81;;;1.31;nan
46291;BME280;32023;44.444;26.006;2023-01-29T18:22:30;100983.34;;;1.33;nan
46291;BME280;32023;44.444;26.006;2023-01-29T18:24:57;100990.16;;;1.29;nan
46291;BME280;32023;44.444;26.006;2023-01-29T18:27:23;100986.03;;;1.19;nan
46291;BME280;32023;44.444;26.006;2023-01-29T18:29:57;100996.78;;;1.12;nan
46291;BME280;32023;44.444;26.006;2023-01-29T18:32:26;100993.22;;;1.12;nan
46291;BME280;32023;44.444;26.006;2023-01-29T18:35:05;100998.09;;;1.16;nan
46291;BME280;32023;44.444;26.006;2023-01-29T18:37:33;100995.91;;;1.12;nan
46291;BME280;32023;44.444;26.006;2023-01-29T18:40:02;100997.41;;;1.14;nan
46291;BME280;32023;44.444;26.006;2023-01-29T18:42:31;100957.81;;;0.90;nan
46291;BME280;32023;44.444;26.006;2023-01-29T18:45:01;100992.91;;;1.07;nan
46291;BME280;32023;44.444;26.006;2023-01-29T18:47:28;100987.53;;;0.98;nan
46291;BME280;32023;44.444;26.006;2023-01-29T18:49:57;100980.25;;;0.99;nan
46291;BME280;32023;44.444;26.006;2023-01-29T18:52:25;100984.56;;;0.93;nan
46291;BME280;32023;44.444;26.006;2023-01-29T18:54:53;100975.38;;;0.94;nan
46291;BME280;32023;44.444;26.006;2023-01-29T18:57:22;100976.44;;;0.93;nan
46291;BME280;32023;44.444;26.006;2023-01-29T18:59:48;100974.72;;;0.92;nan
46291;BME280;32023;44.444;26.006;2023-01-29T19:02:18;100979.13;;;0.93;nan
46291;BME280;32023;44.444;26.006;2023-01-29T19:04:50;100975.94;;;0.90;nan
46291;BME280;32023;44.444;26.006;2023-01-29T19:07:16;100983.59;;;0.86;nan
46291;BME280;32023;44.444;26.006;2023-01-29T19:09:43;100981.59;;;0.80;nan
46291;BME280;32023;44.444;26.006;2023-01-29T19:12:11;100979.91;;;0.79;nan
46291;BME280;32023;44.444;26.006;2023-01-29T19:14:38;100977.56;;;0.76;nan
46291;BME280;32023;44.444;26.006;2023-01-29T19:17:04;100977.28;;;0.71;nan
46291;BME280;32023;44.444;26.006;2023-01-29T19:19:34;100976.59;;;0.69;nan
46291;BME280;32023;44.444;26.006;2023-01-29T19:22:01;100975.22;;;0.73;nan
46291;BME280;32023;44.444;26.006;2023-01-29T19:24:30;100981.50;;;0.74;nan
46291;BME280;32023;44.444;26.006;2023-01-29T19:27:04;100975.22;;;0.73;nan
46291;BME280;32023;44.444;26.006;2023-01-29T19:29:34;100974.22;;;0.74;nan
46291;BME280;32023;44.444;26.006;2023-01-29T19:32:24;100975.97;;;0.67;nan
46291;BME280;32023;44.444;26.006;2023-01-29T19:34:54;100980.91;;;0.64;nan
46291;BME280;32023;44.444;26.006;2023-01-29T19:37:20;100994.13;;;0.59;nan
46291;BME280;32023;44.444;26.006;2023-01-29T19:39:50;100987.50;;;0.61;nan